<?xml version="1.0" encoding="UTF-8"?>
<gpx version="1.1" creator="https://www.youtrack.es" xsi:schemaLocation="http://www.topografix.com/GPX/1/1 http://www.topografix.com/GPX/1/1/gpx.xsd http://www.garmin.com/xmlschemas/GpxExtensions/v3 http://www.garmin.com/xmlschemas/GpxExtensionsv3.xsd http://www.garmin.com/xmlschemas/TrackPointExtension/v1 http://www.garmin.com/xmlschemas/TrackPointExtensionv1.xsd" xmlns:gpxtpx="http://www.garmin.com/xmlschemas/TrackPointExtension/v1" xmlns:gpxx="http://www.garmin.com/xmlschemas/GpxExtensions/v3" xmlns:xsi="http://www.w3.org/2001/XMLSchema-instance">
  <metadata>
    <link href="https://www.youtrack.es">
      <text>YouTrack.es</text>
    </link>
    <time>2026-05-10T17:37:18Z</time>
  </metadata>
  <wpt lat="40.69" lon="-0.657762">
    <ele>972.7</ele>
    <time>2021-08-24T10:40:49Z</time>
    <name>Ultimo tramo de pasarelas</name>
  </wpt>
  <wpt lat="40.69" lon="-0.657762">
    <ele>972.7</ele>
    <time>2021-08-24T10:39:09Z</time>
    <name>Molino de la tosca</name>
  </wpt>
  <wpt lat="40.6905" lon="-0.660473">
    <ele>974.6</ele>
    <time>2021-08-24T10:29:05Z</time>
    <name>Pasarelas</name>
  </wpt>
  <wpt lat="40.689" lon="-0.66377">
    <ele>1034.7</ele>
    <time>2021-08-24T10:14:00Z</time>
    <name>Tramo pasarela</name>
  </wpt>
  <wpt lat="40.6886" lon="-0.66448">
    <ele>1057.3</ele>
    <time>2021-08-24T10:09:09Z</time>
    <name>A nivel del rio</name>
  </wpt>
  <wpt lat="40.6871" lon="-0.665835">
    <ele>1064.4</ele>
    <time>2021-08-24T09:52:33Z</time>
    <name>Bajada con grapas</name>
  </wpt>
  <wpt lat="40.6868" lon="-0.666585">
    <ele>1084</ele>
    <time>2021-08-24T09:44:25Z</time>
    <name>Tramo escaleras</name>
  </wpt>
  <wpt lat="40.6866" lon="-0.66714">
    <ele>1084.9</ele>
    <time>2021-08-24T09:42:16Z</time>
    <name>Escaleras</name>
  </wpt>
  <wpt lat="40.6865" lon="-0.66792">
    <ele>1087.2</ele>
    <time>2021-08-24T09:39:57Z</time>
    <name>Tramo cableado barandillas</name>
  </wpt>
  <wpt lat="40.6861" lon="-0.669577">
    <ele>1093.2</ele>
    <time>2021-08-24T09:35:14Z</time>
    <name>Por arriba del cañón</name>
  </wpt>
  <wpt lat="40.6861" lon="-0.672327">
    <ele>1054.9</ele>
    <time>2021-08-24T09:28:05Z</time>
    <name>Puente</name>
  </wpt>
  <wpt lat="40.6863" lon="-0.671912">
    <ele>1056.5</ele>
    <time>2021-08-24T09:20:17Z</time>
    <name>Por el cañón</name>
  </wpt>
  <wpt lat="40.6846" lon="-0.676413">
    <ele>1100.9</ele>
    <time>2021-08-24T09:05:41Z</time>
    <name>Presa</name>
  </wpt>
  <wpt lat="40.6875" lon="-0.678077">
    <ele>1125.1</ele>
    <time>2021-08-24T08:55:49Z</time>
    <name>Aparcamiento central hidroeléctrica</name>
  </wpt>
  <wpt lat="40.6831" lon="-0.691925">
    <ele>1266.6</ele>
    <time>2021-08-24T12:33:37Z</time>
    <name>Mirador estrecho de La Aldehuela</name>
  </wpt>
  <wpt lat="40.683" lon="-0.692278">
    <ele>1235.2</ele>
    <time>2021-08-24T12:32:34Z</time>
    <name>Entrada y mirador</name>
  </wpt>
  <wpt lat="40.685" lon="-0.692307">
    <ele>1202.4</ele>
    <time>2021-08-24T12:27:25Z</time>
    <name>Giramos a izquierda</name>
  </wpt>
  <wpt lat="40.6846" lon="-0.68299">
    <ele>1105.8</ele>
    <time>2021-08-24T12:12:22Z</time>
    <name>La Aldehuela</name>
  </wpt>
  <wpt lat="40.69" lon="-0.657762">
    <ele>972.7</ele>
    <time>2021-08-24T10:40:49Z</time>
    <name>Ultimo tramo de pasarelas</name>
  </wpt>
  <wpt lat="40.69" lon="-0.657762">
    <ele>972.7</ele>
    <time>2021-08-24T10:39:09Z</time>
    <name>Molino de la tosca</name>
  </wpt>
  <wpt lat="40.6905" lon="-0.660473">
    <ele>974.6</ele>
    <time>2021-08-24T10:29:05Z</time>
    <name>Pasarelas</name>
  </wpt>
  <wpt lat="40.689" lon="-0.66377">
    <ele>1034.7</ele>
    <time>2021-08-24T10:14:00Z</time>
    <name>Tramo pasarela</name>
  </wpt>
  <wpt lat="40.6886" lon="-0.66448">
    <ele>1057.3</ele>
    <time>2021-08-24T10:09:09Z</time>
    <name>A nivel del rio</name>
  </wpt>
  <wpt lat="40.6871" lon="-0.665835">
    <ele>1064.4</ele>
    <time>2021-08-24T09:52:33Z</time>
    <name>Bajada con grapas</name>
  </wpt>
  <wpt lat="40.6868" lon="-0.666585">
    <ele>1084</ele>
    <time>2021-08-24T09:44:25Z</time>
    <name>Tramo escaleras</name>
  </wpt>
  <wpt lat="40.6866" lon="-0.66714">
    <ele>1084.9</ele>
    <time>2021-08-24T09:42:16Z</time>
    <name>Escaleras</name>
  </wpt>
  <wpt lat="40.6865" lon="-0.66792">
    <ele>1087.2</ele>
    <time>2021-08-24T09:39:57Z</time>
    <name>Tramo cableado barandillas</name>
  </wpt>
  <wpt lat="40.6861" lon="-0.669577">
    <ele>1093.2</ele>
    <time>2021-08-24T09:35:14Z</time>
    <name>Por arriba del cañón</name>
  </wpt>
  <wpt lat="40.6846" lon="-0.676413">
    <ele>1100.9</ele>
    <time>2021-08-24T09:05:41Z</time>
    <name>Presa</name>
  </wpt>
  <wpt lat="40.6863" lon="-0.671912">
    <ele>1056.5</ele>
    <time>2021-08-24T09:20:17Z</time>
    <name>Por el cañón</name>
  </wpt>
  <wpt lat="40.6861" lon="-0.672327">
    <ele>1054.9</ele>
    <time>2021-08-24T09:28:05Z</time>
    <name>Puente</name>
  </wpt>
  <wpt lat="40.6875" lon="-0.678077">
    <ele>1125.1</ele>
    <time>2021-08-24T08:55:49Z</time>
    <name>Aparcamiento central hidroeléctrica</name>
  </wpt>
  <wpt lat="40.6831" lon="-0.691925">
    <ele>1266.6</ele>
    <time>2021-08-24T12:33:37Z</time>
    <name>Mirador estrecho de La Aldehuela</name>
  </wpt>
  <wpt lat="40.683" lon="-0.692278">
    <ele>1235.2</ele>
    <time>2021-08-24T12:32:34Z</time>
    <name>Entrada y mirador</name>
  </wpt>
  <wpt lat="40.6846" lon="-0.68299">
    <ele>1105.8</ele>
    <time>2021-08-24T12:12:22Z</time>
    <name>La Aldehuela</name>
  </wpt>
  <wpt lat="40.685" lon="-0.692307">
    <ele>1202.4</ele>
    <time>2021-08-24T12:27:25Z</time>
    <name>Giramos a izquierda</name>
  </wpt>
  <trk>
    <src>https://www.youtrack.es</src>
    <link href="https://www.youtrack.es/ruta/25276-aliaga">
      <text>YouTrack.es</text>
    </link>
    <trkseg>
      <trkpt lat="40.687577" lon="-0.678010">
        <ele>1123.069</ele>
        <time>2021-08-24T08:56:24Z</time>
      </trkpt>
      <trkpt lat="40.687467" lon="-0.677960">
        <ele>1122.704</ele>
        <time>2021-08-24T08:56:34Z</time>
      </trkpt>
      <trkpt lat="40.687178" lon="-0.678317">
        <ele>1118.424</ele>
        <time>2021-08-24T08:57:02Z</time>
      </trkpt>
      <trkpt lat="40.685027" lon="-0.677833">
        <ele>1100.208</ele>
        <time>2021-08-24T09:01:24Z</time>
      </trkpt>
      <trkpt lat="40.684954" lon="-0.677448">
        <ele>1103.994</ele>
        <time>2021-08-24T09:02:12Z</time>
      </trkpt>
      <trkpt lat="40.685143" lon="-0.676218">
        <ele>1101.357</ele>
        <time>2021-08-24T09:03:34Z</time>
      </trkpt>
      <trkpt lat="40.684800" lon="-0.676200">
        <ele>1104.665</ele>
        <time>2021-08-24T09:04:09Z</time>
      </trkpt>
      <trkpt lat="40.684665" lon="-0.676554">
        <ele>1101.660</ele>
        <time>2021-08-24T09:05:11Z</time>
      </trkpt>
      <trkpt lat="40.684641" lon="-0.676007">
        <ele>1100.421</ele>
        <time>2021-08-24T09:07:32Z</time>
      </trkpt>
      <trkpt lat="40.684548" lon="-0.676034">
        <ele>1098.674</ele>
        <time>2021-08-24T09:07:51Z</time>
      </trkpt>
      <trkpt lat="40.685224" lon="-0.674074">
        <ele>1065.461</ele>
        <time>2021-08-24T09:12:58Z</time>
      </trkpt>
      <trkpt lat="40.686120" lon="-0.672801">
        <ele>1072.074</ele>
        <time>2021-08-24T09:17:08Z</time>
      </trkpt>
      <trkpt lat="40.686087" lon="-0.672479">
        <ele>1074.862</ele>
        <time>2021-08-24T09:18:16Z</time>
      </trkpt>
      <trkpt lat="40.686476" lon="-0.671390">
        <ele>1058.083</ele>
        <time>2021-08-24T09:22:40Z</time>
      </trkpt>
      <trkpt lat="40.686446" lon="-0.671237">
        <ele>1056.611</ele>
        <time>2021-08-24T09:23:28Z</time>
      </trkpt>
      <trkpt lat="40.686076" lon="-0.672327">
        <ele>1055.308</ele>
        <time>2021-08-24T09:27:52Z</time>
      </trkpt>
      <trkpt lat="40.685976" lon="-0.672247">
        <ele>1055.614</ele>
        <time>2021-08-24T09:28:32Z</time>
      </trkpt>
      <trkpt lat="40.686137" lon="-0.671896">
        <ele>1056.387</ele>
        <time>2021-08-24T09:29:48Z</time>
      </trkpt>
      <trkpt lat="40.685880" lon="-0.670908">
        <ele>1062.685</ele>
        <time>2021-08-24T09:32:18Z</time>
      </trkpt>
      <trkpt lat="40.685900" lon="-0.670299">
        <ele>1077.940</ele>
        <time>2021-08-24T09:33:44Z</time>
      </trkpt>
      <trkpt lat="40.686834" lon="-0.666169">
        <ele>1082.071</ele>
        <time>2021-08-24T09:45:56Z</time>
      </trkpt>
      <trkpt lat="40.687585" lon="-0.666188">
        <ele>1081.554</ele>
        <time>2021-08-24T09:46:25Z</time>
      </trkpt>
      <trkpt lat="40.687034" lon="-0.666036">
        <ele>1078.191</ele>
        <time>2021-08-24T09:46:54Z</time>
      </trkpt>
      <trkpt lat="40.687297" lon="-0.665556">
        <ele>1063.684</ele>
        <time>2021-08-24T09:56:06Z</time>
      </trkpt>
      <trkpt lat="40.687229" lon="-0.665236">
        <ele>1063.475</ele>
        <time>2021-08-24T09:58:24Z</time>
      </trkpt>
      <trkpt lat="40.687629" lon="-0.665284">
        <ele>1064.428</ele>
        <time>2021-08-24T09:59:34Z</time>
      </trkpt>
      <trkpt lat="40.687790" lon="-0.664842">
        <ele>1070.120</ele>
        <time>2021-08-24T10:00:42Z</time>
      </trkpt>
      <trkpt lat="40.688285" lon="-0.664493">
        <ele>1065.908</ele>
        <time>2021-08-24T10:05:02Z</time>
      </trkpt>
      <trkpt lat="40.688578" lon="-0.664481">
        <ele>1057.815</ele>
        <time>2021-08-24T10:08:18Z</time>
      </trkpt>
      <trkpt lat="40.688513" lon="-0.664198">
        <ele>1040.578</ele>
        <time>2021-08-24T10:09:16Z</time>
      </trkpt>
      <trkpt lat="40.688575" lon="-0.664295">
        <ele>1040.436</ele>
        <time>2021-08-24T10:09:46Z</time>
      </trkpt>
      <trkpt lat="40.688742" lon="-0.664188">
        <ele>1039.651</ele>
        <time>2021-08-24T10:10:24Z</time>
      </trkpt>
      <trkpt lat="40.689037" lon="-0.663772">
        <ele>1035.292</ele>
        <time>2021-08-24T10:12:54Z</time>
      </trkpt>
      <trkpt lat="40.689463" lon="-0.663987">
        <ele>1031.825</ele>
        <time>2021-08-24T10:14:38Z</time>
      </trkpt>
      <trkpt lat="40.689499" lon="-0.662877">
        <ele>1029.582</ele>
        <time>2021-08-24T10:18:21Z</time>
      </trkpt>
      <trkpt lat="40.690116" lon="-0.662448">
        <ele>1018.625</ele>
        <time>2021-08-24T10:20:47Z</time>
      </trkpt>
      <trkpt lat="40.690049" lon="-0.661765">
        <ele>1004.326</ele>
        <time>2021-08-24T10:22:39Z</time>
      </trkpt>
      <trkpt lat="40.690585" lon="-0.661321">
        <ele>998.347</ele>
        <time>2021-08-24T10:24:18Z</time>
      </trkpt>
      <trkpt lat="40.690728" lon="-0.660951">
        <ele>991.211</ele>
        <time>2021-08-24T10:26:40Z</time>
      </trkpt>
      <trkpt lat="40.689286" lon="-0.660218">
        <ele>985.308</ele>
        <time>2021-08-24T10:28:11Z</time>
      </trkpt>
      <trkpt lat="40.691187" lon="-0.660763">
        <ele>980.790</ele>
        <time>2021-08-24T10:28:37Z</time>
      </trkpt>
      <trkpt lat="40.690411" lon="-0.660364">
        <ele>975.853</ele>
        <time>2021-08-24T10:29:36Z</time>
      </trkpt>
      <trkpt lat="40.690616" lon="-0.659477">
        <ele>975.651</ele>
        <time>2021-08-24T10:33:02Z</time>
      </trkpt>
      <trkpt lat="40.690300" lon="-0.658710">
        <ele>970.016</ele>
        <time>2021-08-24T10:34:59Z</time>
      </trkpt>
      <trkpt lat="40.690053" lon="-0.658505">
        <ele>975.947</ele>
        <time>2021-08-24T10:35:47Z</time>
      </trkpt>
      <trkpt lat="40.690148" lon="-0.658250">
        <ele>977.350</ele>
        <time>2021-08-24T10:36:51Z</time>
      </trkpt>
      <trkpt lat="40.690012" lon="-0.657763">
        <ele>973.117</ele>
        <time>2021-08-24T10:38:26Z</time>
      </trkpt>
      <trkpt lat="40.689988" lon="-0.658092">
        <ele>963.780</ele>
        <time>2021-08-24T10:42:49Z</time>
      </trkpt>
      <trkpt lat="40.690315" lon="-0.658556">
        <ele>965.433</ele>
        <time>2021-08-24T10:46:53Z</time>
      </trkpt>
      <trkpt lat="40.690350" lon="-0.659423">
        <ele>978.023</ele>
        <time>2021-08-24T10:50:06Z</time>
      </trkpt>
      <trkpt lat="40.690173" lon="-0.659928">
        <ele>980.515</ele>
        <time>2021-08-24T10:50:55Z</time>
      </trkpt>
      <trkpt lat="40.690323" lon="-0.659961">
        <ele>980.808</ele>
        <time>2021-08-24T10:51:12Z</time>
      </trkpt>
      <trkpt lat="40.690305" lon="-0.660723">
        <ele>1000.671</ele>
        <time>2021-08-24T10:54:39Z</time>
      </trkpt>
      <trkpt lat="40.690517" lon="-0.661302">
        <ele>995.214</ele>
        <time>2021-08-24T10:56:50Z</time>
      </trkpt>
      <trkpt lat="40.690275" lon="-0.661621">
        <ele>996.992</ele>
        <time>2021-08-24T10:57:47Z</time>
      </trkpt>
      <trkpt lat="40.690138" lon="-0.661594">
        <ele>997.327</ele>
        <time>2021-08-24T10:57:53Z</time>
      </trkpt>
      <trkpt lat="40.690187" lon="-0.662031">
        <ele>998.568</ele>
        <time>2021-08-24T10:58:54Z</time>
      </trkpt>
      <trkpt lat="40.690003" lon="-0.662173">
        <ele>1007.731</ele>
        <time>2021-08-24T10:59:25Z</time>
      </trkpt>
      <trkpt lat="40.689802" lon="-0.662743">
        <ele>1004.718</ele>
        <time>2021-08-24T11:02:09Z</time>
      </trkpt>
      <trkpt lat="40.689522" lon="-0.662898">
        <ele>1001.051</ele>
        <time>2021-08-24T11:02:41Z</time>
      </trkpt>
      <trkpt lat="40.689622" lon="-0.663146">
        <ele>1000.164</ele>
        <time>2021-08-24T11:03:11Z</time>
      </trkpt>
      <trkpt lat="40.689416" lon="-0.663246">
        <ele>1002.106</ele>
        <time>2021-08-24T11:03:23Z</time>
      </trkpt>
      <trkpt lat="40.688373" lon="-0.664648">
        <ele>1040.616</ele>
        <time>2021-08-24T11:11:57Z</time>
      </trkpt>
      <trkpt lat="40.688930" lon="-0.664986">
        <ele>1044.408</ele>
        <time>2021-08-24T11:12:19Z</time>
      </trkpt>
      <trkpt lat="40.689760" lon="-0.665184">
        <ele>1059.424</ele>
        <time>2021-08-24T11:13:33Z</time>
      </trkpt>
      <trkpt lat="40.688352" lon="-0.664840">
        <ele>1068.527</ele>
        <time>2021-08-24T11:14:59Z</time>
      </trkpt>
      <trkpt lat="40.687809" lon="-0.665016">
        <ele>1061.645</ele>
        <time>2021-08-24T11:16:04Z</time>
      </trkpt>
      <trkpt lat="40.687924" lon="-0.665296">
        <ele>1060.820</ele>
        <time>2021-08-24T11:16:24Z</time>
      </trkpt>
      <trkpt lat="40.687696" lon="-0.665696">
        <ele>1057.541</ele>
        <time>2021-08-24T11:18:55Z</time>
      </trkpt>
      <trkpt lat="40.687351" lon="-0.665558">
        <ele>1055.364</ele>
        <time>2021-08-24T11:19:55Z</time>
      </trkpt>
      <trkpt lat="40.687229" lon="-0.665710">
        <ele>1055.491</ele>
        <time>2021-08-24T11:23:02Z</time>
      </trkpt>
      <trkpt lat="40.687121" lon="-0.666276">
        <ele>1063.654</ele>
        <time>2021-08-24T11:25:54Z</time>
      </trkpt>
      <trkpt lat="40.687193" lon="-0.666158">
        <ele>1064.681</ele>
        <time>2021-08-24T11:27:17Z</time>
      </trkpt>
      <trkpt lat="40.687481" lon="-0.666780">
        <ele>1074.761</ele>
        <time>2021-08-24T11:29:06Z</time>
      </trkpt>
      <trkpt lat="40.687028" lon="-0.666703">
        <ele>1076.817</ele>
        <time>2021-08-24T11:29:28Z</time>
      </trkpt>
      <trkpt lat="40.687207" lon="-0.667259">
        <ele>1085.508</ele>
        <time>2021-08-24T11:30:14Z</time>
      </trkpt>
      <trkpt lat="40.686740" lon="-0.667137">
        <ele>1087.036</ele>
        <time>2021-08-24T11:30:30Z</time>
      </trkpt>
      <trkpt lat="40.686510" lon="-0.667277">
        <ele>1088.549</ele>
        <time>2021-08-24T11:31:18Z</time>
      </trkpt>
      <trkpt lat="40.686410" lon="-0.667542">
        <ele>1090.077</ele>
        <time>2021-08-24T11:31:41Z</time>
      </trkpt>
      <trkpt lat="40.686545" lon="-0.667933">
        <ele>1085.542</ele>
        <time>2021-08-24T11:32:20Z</time>
      </trkpt>
      <trkpt lat="40.685944" lon="-0.670019">
        <ele>1086.483</ele>
        <time>2021-08-24T11:36:08Z</time>
      </trkpt>
      <trkpt lat="40.686041" lon="-0.672905">
        <ele>1058.946</ele>
        <time>2021-08-24T11:44:29Z</time>
      </trkpt>
      <trkpt lat="40.685698" lon="-0.673171">
        <ele>1063.173</ele>
        <time>2021-08-24T11:45:15Z</time>
      </trkpt>
      <trkpt lat="40.685465" lon="-0.673826">
        <ele>1071.196</ele>
        <time>2021-08-24T11:46:58Z</time>
      </trkpt>
      <trkpt lat="40.685173" lon="-0.674128">
        <ele>1074.637</ele>
        <time>2021-08-24T11:47:28Z</time>
      </trkpt>
      <trkpt lat="40.685156" lon="-0.674662">
        <ele>1079.749</ele>
        <time>2021-08-24T11:48:04Z</time>
      </trkpt>
      <trkpt lat="40.684673" lon="-0.675522">
        <ele>1090.613</ele>
        <time>2021-08-24T11:49:19Z</time>
      </trkpt>
      <trkpt lat="40.684547" lon="-0.676095">
        <ele>1086.808</ele>
        <time>2021-08-24T11:51:51Z</time>
      </trkpt>
      <trkpt lat="40.684649" lon="-0.676423">
        <ele>1094.171</ele>
        <time>2021-08-24T11:54:43Z</time>
      </trkpt>
      <trkpt lat="40.684800" lon="-0.676236">
        <ele>1094.534</ele>
        <time>2021-08-24T11:55:11Z</time>
      </trkpt>
      <trkpt lat="40.685174" lon="-0.676206">
        <ele>1102.892</ele>
        <time>2021-08-24T11:55:44Z</time>
      </trkpt>
      <trkpt lat="40.685054" lon="-0.677752">
        <ele>1105.227</ele>
        <time>2021-08-24T11:57:30Z</time>
      </trkpt>
      <trkpt lat="40.687127" lon="-0.678304">
        <ele>1111.388</ele>
        <time>2021-08-24T12:00:29Z</time>
      </trkpt>
      <trkpt lat="40.687507" lon="-0.677983">
        <ele>1119.011</ele>
        <time>2021-08-24T12:01:14Z</time>
      </trkpt>
      <trkpt lat="40.687543" lon="-0.678112">
        <ele>1123.169</ele>
        <time>2021-08-24T12:05:15Z</time>
      </trkpt>
      <trkpt lat="40.687327" lon="-0.678122">
        <ele>1120.604</ele>
        <time>2021-08-24T12:06:12Z</time>
      </trkpt>
      <trkpt lat="40.686360" lon="-0.679874">
        <ele>1114.024</ele>
        <time>2021-08-24T12:08:12Z</time>
      </trkpt>
      <trkpt lat="40.684918" lon="-0.681359">
        <ele>1103.508</ele>
        <time>2021-08-24T12:10:37Z</time>
      </trkpt>
      <trkpt lat="40.684525" lon="-0.682388">
        <ele>1102.274</ele>
        <time>2021-08-24T12:11:41Z</time>
      </trkpt>
      <trkpt lat="40.684469" lon="-0.682868">
        <ele>1105.587</ele>
        <time>2021-08-24T12:12:08Z</time>
      </trkpt>
      <trkpt lat="40.684942" lon="-0.683324">
        <ele>1103.635</ele>
        <time>2021-08-24T12:13:05Z</time>
      </trkpt>
      <trkpt lat="40.685211" lon="-0.684071">
        <ele>1108.521</ele>
        <time>2021-08-24T12:13:56Z</time>
      </trkpt>
      <trkpt lat="40.684794" lon="-0.684558">
        <ele>1118.117</ele>
        <time>2021-08-24T12:15:05Z</time>
      </trkpt>
      <trkpt lat="40.684678" lon="-0.685344">
        <ele>1120.997</ele>
        <time>2021-08-24T12:15:55Z</time>
      </trkpt>
      <trkpt lat="40.684756" lon="-0.685973">
        <ele>1127.719</ele>
        <time>2021-08-24T12:16:38Z</time>
      </trkpt>
      <trkpt lat="40.684375" lon="-0.686962">
        <ele>1147.484</ele>
        <time>2021-08-24T12:18:03Z</time>
      </trkpt>
      <trkpt lat="40.684064" lon="-0.687132">
        <ele>1154.618</ele>
        <time>2021-08-24T12:18:39Z</time>
      </trkpt>
      <trkpt lat="40.683951" lon="-0.687624">
        <ele>1164.998</ele>
        <time>2021-08-24T12:19:22Z</time>
      </trkpt>
      <trkpt lat="40.684367" lon="-0.688403">
        <ele>1173.917</ele>
        <time>2021-08-24T12:20:36Z</time>
      </trkpt>
      <trkpt lat="40.684749" lon="-0.688537">
        <ele>1178.308</ele>
        <time>2021-08-24T12:21:14Z</time>
      </trkpt>
      <trkpt lat="40.684856" lon="-0.688732">
        <ele>1176.139</ele>
        <time>2021-08-24T12:21:35Z</time>
      </trkpt>
      <trkpt lat="40.684810" lon="-0.689036">
        <ele>1174.762</ele>
        <time>2021-08-24T12:21:58Z</time>
      </trkpt>
      <trkpt lat="40.684088" lon="-0.689706">
        <ele>1174.490</ele>
        <time>2021-08-24T12:23:12Z</time>
      </trkpt>
      <trkpt lat="40.684430" lon="-0.690751">
        <ele>1184.776</ele>
        <time>2021-08-24T12:24:42Z</time>
      </trkpt>
      <trkpt lat="40.684813" lon="-0.691255">
        <ele>1198.972</ele>
        <time>2021-08-24T12:25:49Z</time>
      </trkpt>
      <trkpt lat="40.685022" lon="-0.692252">
        <ele>1203.862</ele>
        <time>2021-08-24T12:27:11Z</time>
      </trkpt>
      <trkpt lat="40.684461" lon="-0.692715">
        <ele>1201.464</ele>
        <time>2021-08-24T12:28:58Z</time>
      </trkpt>
      <trkpt lat="40.683712" lon="-0.692697">
        <ele>1219.419</ele>
        <time>2021-08-24T12:30:38Z</time>
      </trkpt>
      <trkpt lat="40.682965" lon="-0.692282">
        <ele>1236.123</ele>
        <time>2021-08-24T12:32:13Z</time>
      </trkpt>
      <trkpt lat="40.683042" lon="-0.691945">
        <ele>1238.083</ele>
        <time>2021-08-24T12:33:05Z</time>
      </trkpt>
      <trkpt lat="40.683222" lon="-0.691847">
        <ele>1237.711</ele>
        <time>2021-08-24T12:33:08Z</time>
      </trkpt>
      <trkpt lat="40.683100" lon="-0.691797">
        <ele>1237.708</ele>
        <time>2021-08-24T12:33:32Z</time>
      </trkpt>
      <trkpt lat="40.683127" lon="-0.691929">
        <ele>1267.590</ele>
        <time>2021-08-24T12:33:35Z</time>
      </trkpt>
      <trkpt lat="40.683093" lon="-0.691578">
        <ele>1257.093</ele>
        <time>2021-08-24T12:33:57Z</time>
      </trkpt>
      <trkpt lat="40.683148" lon="-0.691931">
        <ele>1259.831</ele>
        <time>2021-08-24T12:34:39Z</time>
      </trkpt>
      <trkpt lat="40.682931" lon="-0.692257">
        <ele>1256.847</ele>
        <time>2021-08-24T12:34:58Z</time>
      </trkpt>
      <trkpt lat="40.682918" lon="-0.691827">
        <ele>1256.623</ele>
        <time>2021-08-24T12:35:38Z</time>
      </trkpt>
      <trkpt lat="40.682973" lon="-0.692200">
        <ele>1239.513</ele>
        <time>2021-08-24T12:36:17Z</time>
      </trkpt>
      <trkpt lat="40.683528" lon="-0.692619">
        <ele>1230.195</ele>
        <time>2021-08-24T12:37:16Z</time>
      </trkpt>
      <trkpt lat="40.684459" lon="-0.692699">
        <ele>1214.450</ele>
        <time>2021-08-24T12:38:42Z</time>
      </trkpt>
      <trkpt lat="40.684988" lon="-0.692448">
        <ele>1199.191</ele>
        <time>2021-08-24T12:39:28Z</time>
      </trkpt>
      <trkpt lat="40.685506" lon="-0.693286">
        <ele>1189.281</ele>
        <time>2021-08-24T12:40:33Z</time>
      </trkpt>
      <trkpt lat="40.684915" lon="-0.693177">
        <ele>1174.219</ele>
        <time>2021-08-24T12:41:24Z</time>
      </trkpt>
      <trkpt lat="40.684736" lon="-0.693831">
        <ele>1171.008</ele>
        <time>2021-08-24T12:42:29Z</time>
      </trkpt>
      <trkpt lat="40.684330" lon="-0.694263">
        <ele>1161.077</ele>
        <time>2021-08-24T12:43:10Z</time>
      </trkpt>
      <trkpt lat="40.683662" lon="-0.694279">
        <ele>1147.650</ele>
        <time>2021-08-24T12:44:02Z</time>
      </trkpt>
      <trkpt lat="40.682459" lon="-0.694638">
        <ele>1131.128</ele>
        <time>2021-08-24T12:45:59Z</time>
      </trkpt>
      <trkpt lat="40.682239" lon="-0.695159">
        <ele>1123.154</ele>
        <time>2021-08-24T12:47:01Z</time>
      </trkpt>
      <trkpt lat="40.681797" lon="-0.694899">
        <ele>1112.840</ele>
        <time>2021-08-24T12:47:39Z</time>
      </trkpt>
    </trkseg>
  </trk>
</gpx>
